sensor_id;sensor_type;location;lat;lon;timestamp;pressure;altitude;pressure_sealevel;temperature;humidity
46382;BME280;66809;52.974;-2.514;2024-03-22T00:01:40;1010.9587765251771;;;10.204847012403462;41.512307059426504
46382;BME280;66809;52.974;-2.514;2024-03-22T00:03:40;1010.9345929545493;;;10.215763322588248;41.49018208274255
46382;BME280;66809;52.974;-2.514;2024-03-22T00:05:41;1010.9122134015045;;;10.233710093900848;41.47334422750203
46382;BME280;66809;52.974;-2.514;2024-03-22T00:07:40;1010.8936635374187;;;10.24248388260804;41.45552579689353
46382;BME280;66809;52.974;-2.514;2024-03-22T00:09:40;1010.8775924190808;;;10.250199018376046;41.4449534263671
46382;BME280;66809;52.974;-2.514;2024-03-22T00:11:42;1010.861624445448;;;10.266297346396618;41.43026808161272
46382;BME280;66809;52.974;-2.514;2024-03-22T00:13:40;1010.84593939295;;;10.278247119666664;41.408624656991314
46382;BME280;66809;52.974;-2.514;2024-03-22T00:15:40;1010.8311976959332;;;10.29728071822052;41.3902118421476
46382;BME280;66809;52.974;-2.514;2024-03-22T00:17:40;1010.8157116177932;;;10.314664573229907;41.370129973131526
46382;BME280;66809;52.974;-2.514;2024-03-22T00:19:42;1010.8017809994088;;;10.33001718697164;41.34897227588464
46382;BME280;66809;52.974;-2.514;2024-03-22T00:21:46;1010.7897969065141;;;10.358691336678303;41.323015720113055
46382;BME280;66809;52.974;-2.514;2024-03-22T00:23:40;1010.7774478173106;;;10.371371209470766;41.29353124116694
46382;BME280;66809;52.974;-2.514;2024-03-22T00:25:40;1010.7672692989233;;;10.388084950709294;41.26071321663746
46382;BME280;66809;52.974;-2.514;2024-03-22T00:27:40;1010.7564159082929;;;10.403076274794659;41.23367716773779
46382;BME280;66809;52.974;-2.514;2024-03-22T00:29:40;1010.7439853590582;;;10.411667297096821;41.20947813023562
46382;BME280;66809;52.974;-2.514;2024-03-22T00:31:40;1010.7330248027723;;;10.421073317559586;41.18498627477715
46382;BME280;66809;52.974;-2.514;2024-03-22T00:33:40;1010.7229550925256;;;10.433754084115233;41.16068789342517
46382;BME280;66809;52.974;-2.514;2024-03-22T00:35:40;1010.7161882493983;;;10.446818410619986;41.13961867441232
46382;BME280;66809;52.974;-2.514;2024-03-22T00:37:40;1010.7108414913948;;;10.471403744274204;41.11550220653212
46382;BME280;66809;52.974;-2.514;2024-03-22T00:39:40;1010.7054028702272;;;10.480773245334905;41.09687170783346
46382;BME280;66809;52.974;-2.514;2024-03-22T00:41:40;1010.6983724955438;;;10.485900885250603;41.067463966047086
46382;BME280;66809;52.974;-2.514;2024-03-22T00:43:40;1010.6922144812667;;;10.505565865529153;41.02864754757247
46382;BME280;66809;52.974;-2.514;2024-03-22T00:45:40;1010.6862399768265;;;10.528085477297394;40.99140043135456
46382;BME280;66809;52.974;-2.514;2024-03-22T00:47:41;1010.6820838557416;;;10.537625081934605;40.96170180762517
46382;BME280;66809;52.974;-2.514;2024-03-22T00:49:40;1010.6807930259597;;;10.556951907370738;40.93612060958261
46382;BME280;66809;52.974;-2.514;2024-03-22T00:51:40;1010.6801362088952;;;10.574262242208135;40.91240094922138
46382;BME280;66809;52.974;-2.514;2024-03-22T00:53:41;1010.679222984678;;;10.596819735210804;40.89475470179478
46382;BME280;66809;52.974;-2.514;2024-03-22T00:55:40;1010.677492765808;;;10.61273326244385;40.8763221286428
46382;BME280;66809;52.974;-2.514;2024-03-22T00:57:40;1010.6759308137237;;;10.628806424437565;40.86602732922509
46382;BME280;66809;52.974;-2.514;2024-03-22T00:59:40;1010.6764154297028;;;10.636842939404655;40.851520648207035
46382;BME280;66809;52.974;-2.514;2024-03-22T01:01:40;1010.6789913950902;;;10.650548778445664;40.83074217291254
46382;BME280;66809;52.974;-2.514;2024-03-22T01:03:40;1010.6794176339695;;;10.665260805434459;40.81848861093702
46382;BME280;66809;52.974;-2.514;2024-03-22T01:05:40;1010.6799023107319;;;10.673765775785094;40.809959896308655
46382;BME280;66809;52.974;-2.514;2024-03-22T01:07:40;1010.6816794414792;;;10.68144646366547;40.799373602676845
46382;BME280;66809;52.974;-2.514;2024-03-22T01:09:40;1010.6816851996537;;;10.699678965668651;40.78299988896788
46382;BME280;66809;52.974;-2.514;2024-03-22T01:11:40;1010.6801631650942;;;10.69967383750457;40.76868358915411
46382;BME280;66809;52.974;-2.514;2024-03-22T01:13:41;1010.6782768697484;;;10.710035673893039;40.762014593892836
46382;BME280;66809;52.974;-2.514;2024-03-22T01:15:40;1010.6752921392122;;;10.712406263974264;40.75936670162466
46382;BME280;66809;52.974;-2.514;2024-03-22T01:17:40;1010.672899006539;;;10.71802092941029;40.76211285308806
46382;BME280;66809;52.974;-2.514;2024-03-22T01:19:41;1010.6718363717229;;;10.723232295082791;40.76574143799853
46382;BME280;66809;52.974;-2.514;2024-03-22T01:21:40;1010.67157396223;;;10.722908766513118;40.771331343062435
46382;BME280;66809;52.974;-2.514;2024-03-22T01:23:41;1010.6752797855029;;;10.73398271484049;40.77437020416592
46382;BME280;66809;52.974;-2.514;2024-03-22T01:25:40;1010.6789070910191;;;10.740191852870295;40.77927215613713
46382;BME280;66809;52.974;-2.514;2024-03-22T01:27:40;1010.6849247521609;;;10.733031234039396;40.79338343307321
46382;BME280;66809;52.974;-2.514;2024-03-22T01:29:40;1010.6943122633191;;;10.718365543258777;40.82061292319712
46382;BME280;66809;52.974;-2.514;2024-03-22T01:31:40;1010.7042078888923;;;10.689332404226482;40.85281454370536
46382;BME280;66809;52.974;-2.514;2024-03-22T01:33:40;1010.7142090908607;;;10.649772496481985;40.9024010780246
46382;BME280;66809;52.974;-2.514;2024-03-22T01:35:40;1010.7219659313034;;;10.611005284258194;40.953660534465804
46382;BME280;66809;52.974;-2.514;2024-03-22T01:37:41;1010.7282904576244;;;10.556759705168844;41.0147174897056
46382;BME280;66809;52.974;-2.514;2024-03-22T01:39:40;1010.7344080441666;;;10.516824561506182;41.075690018644835
46382;BME280;66809;52.974;-2.514;2024-03-22T01:41:40;1010.7402612537195;;;10.479633894044179;41.12591596794154
46382;BME280;66809;52.974;-2.514;2024-03-22T01:43:40;1010.7459978479368;;;10.445736789672528;41.17821500264948
46382;BME280;66809;52.974;-2.514;2024-03-22T01:45:40;1010.7524333001237;;;10.404564676069915;41.21475594199496
46382;BME280;66809;52.974;-2.514;2024-03-22T01:47:40;1010.7589482598175;;;10.369927304101488;41.248253177516716
46382;BME280;66809;52.974;-2.514;2024-03-22T01:49:40;1010.7632684428559;;;10.333603167886697;41.27264461150161
46382;BME280;66809;52.974;-2.514;2024-03-22T01:51:40;1010.7650887051924;;;10.299009845223306;41.284599845288845
46382;BME280;66809;52.974;-2.514;2024-03-22T01:53:40;1010.7661708671512;;;10.25392445725876;41.2926370690735
46382;BME280;66809;52.974;-2.514;2024-03-22T01:55:40;1010.768722535998;;;10.212777577460685;41.29617427899373
46382;BME280;66809;52.974;-2.514;2024-03-22T01:57:41;1010.7726877426011;;;10.173607217569039;41.299608259129606
46382;BME280;66809;52.974;-2.514;2024-03-22T01:59:40;1010.7783555527292;;;10.140543087706215;41.29246407444999
46382;BME280;66809;52.974;-2.514;2024-03-22T02:01:40;1010.7833989966653;;;10.108134320055477;41.27915274554113
46382;BME280;66809;52.974;-2.514;2024-03-22T02:03:40;1010.7920931795928;;;10.071381707541587;41.25830063264497
46382;BME280;66809;52.974;-2.514;2024-03-22T02:05:41;1010.8000779120676;;;10.034150172874424;41.239109908295205
46382;BME280;66809;52.974;-2.514;2024-03-22T02:07:40;1010.8060740912817;;;10.005411940633644;41.21923546660614
46382;BME280;66809;52.974;-2.514;2024-03-22T02:09:40;1010.8125523116273;;;9.964029787432606;41.20142717096084
46382;BME280;66809;52.974;-2.514;2024-03-22T02:11:41;1010.8189897451344;;;9.922688538847893;41.18059106780489
46382;BME280;66809;52.974;-2.514;2024-03-22T02:13:40;1010.8269494141971;;;9.859133433201176;41.163194142111145
46382;BME280;66809;52.974;-2.514;2024-03-22T02:15:40;1010.8350775398377;;;9.776337932432062;41.16297905452959
46382;BME280;66809;52.974;-2.514;2024-03-22T02:17:41;1010.8448687117012;;;9.68745553000588;41.16927840065793
46382;BME280;66809;52.974;-2.514;2024-03-22T02:19:40;1010.857536067219;;;9.608999873939363;41.178515823121444
46382;BME280;66809;52.974;-2.514;2024-03-22T02:21:40;1010.868841854084;;;9.519480879245032;41.19301655619855
46382;BME280;66809;52.974;-2.514;2024-03-22T02:23:41;1010.8765716703542;;;9.432656872170348;41.20450944499009
46382;BME280;66809;52.974;-2.514;2024-03-22T02:25:40;1010.8826878477004;;;9.35094137959605;41.21757139122097
46382;BME280;66809;52.974;-2.514;2024-03-22T02:27:41;1010.8860527592703;;;9.280268325369422;41.214177385321925
46382;BME280;66809;52.974;-2.514;2024-03-22T02:29:41;1010.8853876320793;;;9.213577996980773;41.20732152517428
46382;BME280;66809;52.974;-2.514;2024-03-22T02:31:40;1010.8858455282461;;;9.158005545991092;41.205346128530145
46382;BME280;66809;52.974;-2.514;2024-03-22T02:33:40;1010.8864595092125;;;9.119553360669933;41.183845553287945
46382;BME280;66809;52.974;-2.514;2024-03-22T02:35:41;1010.8864099584026;;;9.082472597694201;41.157957698506934
46382;BME280;66809;52.974;-2.514;2024-03-22T02:37:40;1010.884191897087;;;9.05981049288483;41.125242903041865
46382;BME280;66809;52.974;-2.514;2024-03-22T02:39:40;1010.8774618134871;;;9.032433890466423;41.08744760710616
46382;BME280;66809;52.974;-2.514;2024-03-22T02:41:41;1010.868837433857;;;9.012099028844535;41.06148356967086
46382;BME280;66809;52.974;-2.514;2024-03-22T02:43:40;1010.857219098161;;;8.986335500468739;41.0371766390847
46382;BME280;66809;52.974;-2.514;2024-03-22T02:45:40;1010.8421225742115;;;8.964801095986603;41.02364339083575
46382;BME280;66809;52.974;-2.514;2024-03-22T02:47:41;1010.8247271274837;;;8.946484633828288;41.006982727263875
46382;BME280;66809;52.974;-2.514;2024-03-22T02:49:40;1010.8056811599021;;;8.927764858084089;41.00049725883641
46382;BME280;66809;52.974;-2.514;2024-03-22T02:51:40;1010.7909479213525;;;8.910053302680957;41.00096987873223
46382;BME280;66809;52.974;-2.514;2024-03-22T02:53:41;1010.7766893764948;;;8.90218889168849;41.001647128778494
46382;BME280;66809;52.974;-2.514;2024-03-22T02:55:41;1010.7580114869781;;;8.89546715208141;40.99616946946021
46382;BME280;66809;52.974;-2.514;2024-03-22T02:57:41;1010.7406312180156;;;8.87638810223058;40.982768135272394
46382;BME280;66809;52.974;-2.514;2024-03-22T02:59:40;1010.7253317002322;;;8.864455099855256;40.96419499736672
46382;BME280;66809;52.974;-2.514;2024-03-22T03:01:40;1010.7108935110392;;;8.846214232065618;40.96265019157788
46382;BME280;66809;52.974;-2.514;2024-03-22T03:03:40;1010.6955240238038;;;8.836801842917968;40.96394586615042
46382;BME280;66809;52.974;-2.514;2024-03-22T03:05:42;1010.6812540454829;;;8.829137059071675;40.9621062394356
46382;BME280;66809;52.974;-2.514;2024-03-22T03:07:40;1010.668952114333;;;8.812264783894554;40.95606167937743
46382;BME280;66809;52.974;-2.514;2024-03-22T03:09:40;1010.6563696211299;;;8.802778789478774;40.94346445640156
46382;BME280;66809;52.974;-2.514;2024-03-22T03:11:41;1010.6434450750033;;;8.802602213366955;40.919905997348415
46382;BME280;66809;52.974;-2.514;2024-03-22T03:13:41;1010.6289438158332;;;8.80705428824104;40.8819479757533
46382;BME280;66809;52.974;-2.514;2024-03-22T03:15:40;1010.6134283815187;;;8.841718666743983;40.807622814084226
46382;BME280;66809;52.974;-2.514;2024-03-22T03:17:40;1010.5953681587448;;;8.878917935487163;40.72060825995185
46382;BME280;66809;52.974;-2.514;2024-03-22T03:19:40;1010.5758184587925;;;8.910519580602488;40.613432352258336
46382;BME280;66809;52.974;-2.514;2024-03-22T03:21:40;1010.5569401507516;;;8.942229452104941;40.502754324422895
46382;BME280;66809;52.974;-2.514;2024-03-22T03:23:40;1010.5375228503837;;;8.97947077728376;40.406037068663366
46382;BME280;66809;52.974;-2.514;2024-03-22T03:25:41;1010.5207340202938;;;9.017887414845648;40.31204413662442
46382;BME280;66809;52.974;-2.514;2024-03-22T03:27:40;1010.5069582059361;;;9.05127231556876;40.21979738257918
46382;BME280;66809;52.974;-2.514;2024-03-22T03:29:40;1010.4969743043835;;;9.099227086613755;40.11241047381572
46382;BME280;66809;52.974;-2.514;2024-03-22T03:31:40;1010.487404930395;;;9.15505049878643;39.992821157995955
46382;BME280;66809;52.974;-2.514;2024-03-22T03:33:40;1010.4758711653701;;;9.198560675976463;39.88154235401337
46382;BME280;66809;52.974;-2.514;2024-03-22T03:35:40;1010.4654935274962;;;9.238531721887073;39.781002146904285
46382;BME280;66809;52.974;-2.514;2024-03-22T03:37:41;1010.4594861371787;;;9.272058529791675;39.68493988018945
46382;BME280;66809;52.974;-2.514;2024-03-22T03:39:40;1010.4552389608688;;;9.299846829365714;39.596493967753325
46382;BME280;66809;52.974;-2.514;2024-03-22T03:41:40;1010.452408299364;;;9.32677071341431;39.51088170211022
46382;BME280;66809;52.974;-2.514;2024-03-22T03:43:40;1010.4530350104008;;;9.337174460160787;39.42800637912161
46382;BME280;66809;52.974;-2.514;2024-03-22T03:45:40;1010.455578310768;;;9.35399626578154;39.35569129245588
46382;BME280;66809;52.974;-2.514;2024-03-22T03:47:40;1010.4599367845537;;;9.366146583428907;39.28298109504602
46382;BME280;66809;52.974;-2.514;2024-03-22T03:49:40;1010.4679634248013;;;9.378978405296392;39.217426909127084
46382;BME280;66809;52.974;-2.514;2024-03-22T03:51:40;1010.4731162219995;;;9.384769374744309;39.16068338428085
46382;BME280;66809;52.974;-2.514;2024-03-22T03:53:40;1010.4782727675242;;;9.375056818076567;39.11636627260167
46382;BME280;66809;52.974;-2.514;2024-03-22T03:55:40;1010.4883046712606;;;9.381064227377774;39.081142382175116
46382;BME280;66809;52.974;-2.514;2024-03-22T03:57:40;1010.4972210762782;;;9.399107633428065;39.052078741435494
46382;BME280;66809;52.974;-2.514;2024-03-22T03:59:40;1010.5011093428903;;;9.397142635550487;39.03612141402636
46382;BME280;66809;52.974;-2.514;2024-03-22T04:01:40;1010.5022893902675;;;9.396689990086069;39.015373462527414
46382;BME280;66809;52.974;-2.514;2024-03-22T04:03:40;1010.5051442062496;;;9.403337956738557;38.997850869180965
46382;BME280;66809;52.974;-2.514;2024-03-22T04:05:40;1010.5057077825826;;;9.403972128687904;38.97846939101219
46382;BME280;66809;52.974;-2.514;2024-03-22T04:07:40;1010.5012050090864;;;9.410099179336676;38.964758878772635
46382;BME280;66809;52.974;-2.514;2024-03-22T04:09:40;1010.4975788803416;;;9.410537152058343;38.9609274760558
46382;BME280;66809;52.974;-2.514;2024-03-22T04:11:40;1010.4948604331431;;;9.408361169297924;38.974114514526946
46382;BME280;66809;52.974;-2.514;2024-03-22T04:13:41;1010.4924767149768;;;9.427063969545868;38.99394528262164
46382;BME280;66809;52.974;-2.514;2024-03-22T04:15:41;1010.4901075099035;;;9.431105457988018;39.02198719223511
46382;BME280;66809;52.974;-2.514;2024-03-22T04:17:40;1010.4891055200007;;;9.44602939017161;39.05600154381751
46382;BME280;66809;52.974;-2.514;2024-03-22T04:19:40;1010.4857908068997;;;9.449852428487214;39.10684717431071
46382;BME280;66809;52.974;-2.514;2024-03-22T04:21:41;1010.4818914964893;;;9.4644373259065;39.157888516668024
46382;BME280;66809;52.974;-2.514;2024-03-22T04:23:40;1010.4782193014003;;;9.470336602993363;39.201898839757305
46382;BME280;66809;52.974;-2.514;2024-03-22T04:25:40;1010.4723824675882;;;9.482892130675685;39.24122646291781
46382;BME280;66809;52.974;-2.514;2024-03-22T04:27:41;1010.4648080847957;;;9.498083864109656;39.27899621380949
46382;BME280;66809;52.974;-2.514;2024-03-22T04:29:40;1010.4566928239764;;;9.513129810243338;39.32342408342481
46382;BME280;66809;52.974;-2.514;2024-03-22T04:31:40;1010.4465753472009;;;9.513870283463627;39.37117913090954
46382;BME280;66809;52.974;-2.514;2024-03-22T04:33:41;1010.4363908860286;;;9.52016244926983;39.41090282253052
46382;BME280;66809;52.974;-2.514;2024-03-22T04:35:45;1010.4247637349631;;;9.525227926358054;39.44221069838293
46382;BME280;66809;52.974;-2.514;2024-03-22T04:37:41;1010.4136374374935;;;9.52864661335965;39.47009628311637
46382;BME280;66809;52.974;-2.514;2024-03-22T04:39:41;1010.4036887800643;;;9.531451953115587;39.49641593944167
46382;BME280;66809;52.974;-2.514;2024-03-22T04:41:40;1010.3924438033899;;;9.533013796637727;39.5111827191323
46382;BME280;66809;52.974;-2.514;2024-03-22T04:43:40;1010.3801665670287;;;9.542618205999098;39.52223746225477
46382;BME280;66809;52.974;-2.514;2024-03-22T04:45:42;1010.3675773201443;;;9.53874395709367;39.52771614685717
46382;BME280;66809;52.974;-2.514;2024-03-22T04:47:40;1010.3554713678673;;;9.541348574942601;39.539557102558
46382;BME280;66809;52.974;-2.514;2024-03-22T04:49:40;1010.34182377895;;;9.543588949777398;39.53514460842162
46382;BME280;66809;52.974;-2.514;2024-03-22T04:51:41;1010.3300225041589;;;9.537949345401632;39.52710624576975
46382;BME280;66809;52.974;-2.514;2024-03-22T04:53:40;1010.3193617637312;;;9.554914822653531;39.51554734119471
46382;BME280;66809;52.974;-2.514;2024-03-22T04:55:40;1010.3090899380798;;;9.549076525350353;39.50418515405431
46382;BME280;66809;52.974;-2.514;2024-03-22T04:57:41;1010.2983001754272;;;9.53731684974885;39.49527257286244
46382;BME280;66809;52.974;-2.514;2024-03-22T04:59:40;1010.2880319007098;;;9.54687083933729;39.48684908952818
46382;BME280;66809;52.974;-2.514;2024-03-22T05:01:40;1010.2787875561618;;;9.56119513571838;39.476469075478256
46382;BME280;66809;52.974;-2.514;2024-03-22T05:03:40;1010.2666211669404;;;9.55869336336503;39.46472137180693
46382;BME280;66809;52.974;-2.514;2024-03-22T05:05:41;1010.2547755829288;;;9.559861238560481;39.454932679041285
46382;BME280;66809;52.974;-2.514;2024-03-22T05:07:41;1010.246178030783;;;9.575141343705825;39.44455833288132
46382;BME280;66809;52.974;-2.514;2024-03-22T05:09:40;1010.2377590685313;;;9.57977721871714;39.435554240702565
46382;BME280;66809;52.974;-2.514;2024-03-22T05:11:40;1010.2271737550494;;;9.589248127545453;39.420288655001514
46382;BME280;66809;52.974;-2.514;2024-03-22T05:13:41;1010.2172593587566;;;9.583702815121432;39.40444106110176
46382;BME280;66809;52.974;-2.514;2024-03-22T05:15:40;1010.208730815344;;;9.581905721849871;39.395352056328576
46382;BME280;66809;52.974;-2.514;2024-03-22T05:17:40;1010.2017297406691;;;9.567276926206215;39.38264358829945
46382;BME280;66809;52.974;-2.514;2024-03-22T05:19:41;1010.1947500898127;;;9.56222826605043;39.37189652814438
46382;BME280;66809;52.974;-2.514;2024-03-22T05:21:40;1010.1888951092691;;;9.55612935762699;39.360465572519466
46382;BME280;66809;52.974;-2.514;2024-03-22T05:23:40;1010.1839760236309;;;9.552633044255035;39.345417802717016
46382;BME280;66809;52.974;-2.514;2024-03-22T05:25:40;1010.1786624905313;;;9.542733482895764;39.337222732655626
46382;BME280;66809;52.974;-2.514;2024-03-22T05:27:46;1010.1742129003534;;;9.526820119587493;39.333434706122695
46382;BME280;66809;52.974;-2.514;2024-03-22T05:29:40;1010.1694079768295;;;9.504338422260764;39.32720374370787
46382;BME280;66809;52.974;-2.514;2024-03-22T05:31:46;1010.1665873622437;;;9.502481425608346;39.323712351815544
46382;BME280;66809;52.974;-2.514;2024-03-22T05:33:40;1010.1658466339601;;;9.498372698510797;39.31826994691991
46382;BME280;66809;52.974;-2.514;2024-03-22T05:35:40;1010.1657664893863;;;9.478501993404649;39.31703494670107
46382;BME280;66809;52.974;-2.514;2024-03-22T05:37:40;1010.16587710278;;;9.471773862662978;39.31687482125141
46382;BME280;66809;52.974;-2.514;2024-03-22T05:39:40;1010.1698124109874;;;9.47148803557312;39.32101711252592
46382;BME280;66809;52.974;-2.514;2024-03-22T05:41:40;1010.1766700742934;;;9.457036612060126;39.33210990981662
46382;BME280;66809;52.974;-2.514;2024-03-22T05:43:40;1010.1857786759164;;;9.440164485788094;39.33771415519576
46382;BME280;66809;52.974;-2.514;2024-03-22T05:45:41;1010.1970159176769;;;9.440608703521578;39.34282607456701
46382;BME280;66809;52.974;-2.514;2024-03-22T05:47:40;1010.2081702698729;;;9.435954937860021;39.34216265922227
46382;BME280;66809;52.974;-2.514;2024-03-22T05:49:40;1010.2210463308314;;;9.422446567546116;39.34834868105564
46382;BME280;66809;52.974;-2.514;2024-03-22T05:51:41;1010.2305528250436;;;9.426288148584113;39.34865949708707
46382;BME280;66809;52.974;-2.514;2024-03-22T05:53:40;1010.2405982273503;;;9.420613853664834;39.343384243368476
46382;BME280;66809;52.974;-2.514;2024-03-22T05:55:40;1010.2523881870543;;;9.422361466852788;39.32996784246348
46382;BME280;66809;52.974;-2.514;2024-03-22T05:57:41;1010.267876307315;;;9.418243558180851;39.31214773989114
46382;BME280;66809;52.974;-2.514;2024-03-22T05:59:40;1010.2845986360566;;;9.408402961496769;39.29902738473493
46382;BME280;66809;52.974;-2.514;2024-03-22T06:01:40;1010.299977612451;;;9.403362856171613;39.27679168725029
46382;BME280;66809;52.974;-2.514;2024-03-22T06:03:41;1010.3163274654376;;;9.396580582934137;39.243395486085085
46382;BME280;66809;52.974;-2.514;2024-03-22T06:05:40;1010.3347660380886;;;9.387916264125467;39.210593771429465
46382;BME280;66809;52.974;-2.514;2024-03-22T06:07:40;1010.3514723060166;;;9.368820721463509;39.15351005288972
46382;BME280;66809;52.974;-2.514;2024-03-22T06:09:41;1010.3702756746186;;;9.358302521067895;39.09202750156694
46382;BME280;66809;52.974;-2.514;2024-03-22T06:11:40;1010.3913601967585;;;9.350638975708819;39.017918403844014
46382;BME280;66809;52.974;-2.514;2024-03-22T06:13:40;1010.4124257395329;;;9.341202612854753;38.91737233027629
46382;BME280;66809;52.974;-2.514;2024-03-22T06:15:43;1010.4329300991787;;;9.329985978740726;38.78396900368311
46382;BME280;66809;52.974;-2.514;2024-03-22T06:17:40;1010.4512559419173;;;9.292109022011685;38.61814825163802
46382;BME280;66809;52.974;-2.514;2024-03-22T06:19:41;1010.4699352282238;;;9.26927148725184;38.46311395277592
46382;BME280;66809;52.974;-2.514;2024-03-22T06:21:40;1010.4876151761113;;;9.237974227394833;38.31168771385789
46382;BME280;66809;52.974;-2.514;2024-03-22T06:23:40;1010.5050388986091;;;9.20249480405289;38.15977567975219
46382;BME280;66809;52.974;-2.514;2024-03-22T06:25:40;1010.5223547792077;;;9.172632303557853;37.99987744804428
46382;BME280;66809;52.974;-2.514;2024-03-22T06:27:41;1010.5384842968857;;;9.151267108520635;37.848234013185476
46382;BME280;66809;52.974;-2.514;2024-03-22T06:29:40;1010.5534454123157;;;9.13053948812661;37.69516797449432
46382;BME280;66809;52.974;-2.514;2024-03-22T06:31:40;1010.5671036299535;;;9.10514981903123;37.541170294672646
46382;BME280;66809;52.974;-2.514;2024-03-22T06:33:41;1010.5816570867166;;;9.083968575519322;37.393854729774425
46382;BME280;66809;52.974;-2.514;2024-03-22T06:35:41;1010.5975613500609;;;9.088758644402947;37.21769555880706
46382;BME280;66809;52.974;-2.514;2024-03-22T06:37:40;1010.6131997050147;;;9.084052596218166;37.053461099008715
46382;BME280;66809;52.974;-2.514;2024-03-22T06:39:40;1010.6264212591999;;;9.074365254084324;36.88682716538665
46382;BME280;66809;52.974;-2.514;2024-03-22T06:41:40;1010.6381692037946;;;9.080867459737126;36.7201320158846
46382;BME280;66809;52.974;-2.514;2024-03-22T06:43:40;1010.6493534089825;;;9.096478361393757;36.551331495084135
46382;BME280;66809;52.974;-2.514;2024-03-22T06:45:40;1010.6605903990732;;;9.099044091636687;36.36750316877945
46382;BME280;66809;52.974;-2.514;2024-03-22T06:47:40;1010.6727148351123;;;9.096095151298316;36.15331277219058
46382;BME280;66809;52.974;-2.514;2024-03-22T06:49:40;1010.6838883978203;;;9.098673623590768;35.94085215724025
46382;BME280;66809;52.974;-2.514;2024-03-22T06:51:41;1010.697049715441;;;9.093613754475397;35.731741730405105
46382;BME280;66809;52.974;-2.514;2024-03-22T06:53:40;1010.7089810028599;;;9.08323838781162;35.51572655172372
46382;BME280;66809;52.974;-2.514;2024-03-22T06:55:40;1010.7175896281321;;;9.070626075177406;35.32306151214617
46382;BME280;66809;52.974;-2.514;2024-03-22T06:57:41;1010.7228400200714;;;9.061972037614023;35.13140240650196
46382;BME280;66809;52.974;-2.514;2024-03-22T06:59:40;1010.728726503605;;;9.05696540366906;34.93693714592184
46382;BME280;66809;52.974;-2.514;2024-03-22T07:01:40;1010.7374533218813;;;9.036413224964813;34.75414175066453
46382;BME280;66809;52.974;-2.514;2024-03-22T07:03:41;1010.7479694916346;;;9.020936785310578;34.57693551352676
46382;BME280;66809;52.974;-2.514;2024-03-22T07:05:40;1010.7584182079265;;;9.006199725112939;34.40797028131022
46382;BME280;66809;52.974;-2.514;2024-03-22T07:07:40;1010.7683443786059;;;9.000168050593834;34.262672705748315
46382;BME280;66809;52.974;-2.514;2024-03-22T07:09:40;1010.7744181610398;;;9.006872697965076;34.12852978063305
46382;BME280;66809;52.974;-2.514;2024-03-22T07:11:40;1010.7799994335224;;;9.00350350521773;34.01078500952731